PWSweather.com
Personal Weather Stations
Station Observations
MART18
Seleziona Stato..., MartinsicuroIT italia

Seleziona Stato...MartinsicuroIT italia

Lat: 42.885169, Lon: 13.918447300000025

Elevation: 3

Station Type: Davis vantage vp2

Latest ConditionsUpdated 6:05:06 PM GMT+01:01 Monday, Jan 21, 2019
Currently Today's Max Today's Min Today's Average
Temperature 41.3°F5.2°C 43.6°F6.4°C 41.3°F5.2°C 42.5°F5.8°C
Dew Point 36.2°F2.3°C 38.7°F3.7°C 36.2°F2.3°C 37.3°F2.9°C
Winds 8.0 mph W12.9 kmh W 16.0 mph -25.7 kmh - - 7.0 mph 11.3 kmh
Wind Gusts 16.0 mph25.7 kmh 20.0 mph32.2 kmh - -
Humidity 82% 83% 81% 82%
Pressure 29.87 in1011.5 mb 29.93 in1013.5 mb 29.87 in1011.5 mb -
Precipitation - 0.12 in3.0 mm - -
Hour Temp Dew Point Humidity Winds Wind Gusts Pressure Precip Precip Rate Daily Precip Total
06:05 PM 41.3°F5.2°C 36.2°F2.3°C 82% 8.0 mph W12.9 kmh W 16.0 mph25.7 kmh 29.87 in1011.5 mb 0.00 in0.0 mm 0.00 in0.0 mm 0.12 in3.0 mm
06:00 PM 41.3°F5.2°C 36.2°F2.3°C 82% 6.0 mph WSW9.7 kmh WSW 15.0 mph24.1 kmh 29.87 in1011.5 mb 0.01 in0.3 mm 0.00 in0.0 mm 0.12 in3.0 mm
05:55 PM 41.4°F5.2°C 36.3°F2.4°C 82% 13.0 mph WSW20.9 kmh WSW 15.0 mph24.1 kmh 29.87 in1011.5 mb 0.01 in0.3 mm 0.00 in0.0 mm 0.12 in3.0 mm
05:50 PM 41.4°F5.2°C 36.3°F2.4°C 82% 7.0 mph WNW11.3 kmh WNW 16.0 mph25.7 kmh 29.88 in1011.9 mb 0.01 in0.3 mm 0.00 in0.0 mm 0.12 in3.0 mm
05:45 PM 41.4°F5.2°C 36.3°F2.4°C 82% 4.0 mph WNW6.4 kmh WNW 14.0 mph22.5 kmh 29.88 in1011.9 mb 0.01 in0.3 mm 0.00 in0.0 mm 0.12 in3.0 mm
05:40 PM 41.4°F5.2°C 36.3°F2.4°C 82% 5.0 mph SW8.0 kmh SW 16.0 mph25.7 kmh 29.88 in1011.9 mb 0.02 in0.5 mm 0.00 in0.0 mm 0.12 in3.0 mm
05:35 PM 41.4°F5.2°C 36.3°F2.4°C 82% 5.0 mph WSW8.0 kmh WSW 14.0 mph22.5 kmh 29.88 in1011.9 mb 0.02 in0.5 mm 0.00 in0.0 mm 0.12 in3.0 mm
05:30 PM 41.4°F5.2°C 36.3°F2.4°C 82% 8.0 mph WNW12.9 kmh WNW 15.0 mph24.1 kmh 29.88 in1011.9 mb 0.02 in0.5 mm 0.00 in0.0 mm 0.12 in3.0 mm
05:25 PM 41.4°F5.2°C 36.3°F2.4°C 82% 4.0 mph WNW6.4 kmh WNW 15.0 mph24.1 kmh 29.88 in1011.9 mb 0.02 in0.5 mm 0.00 in0.0 mm 0.12 in3.0 mm
05:20 PM 41.4°F5.2°C 36.3°F2.4°C 82% 8.0 mph WSW12.9 kmh WSW 16.0 mph25.7 kmh 29.88 in1011.9 mb 0.02 in0.5 mm 0.00 in0.0 mm 0.12 in3.0 mm
05:15 PM 41.4°F5.2°C 36.3°F2.4°C 82% 9.0 mph WSW14.5 kmh WSW 16.0 mph25.7 kmh 29.88 in1011.9 mb 0.02 in0.5 mm 0.00 in0.0 mm 0.12 in3.0 mm
05:10 PM 41.4°F5.2°C 36.3°F2.4°C 82% 6.0 mph NW9.7 kmh NW 15.0 mph24.1 kmh 29.88 in1011.9 mb 0.02 in0.5 mm 0.00 in0.0 mm 0.12 in3.0 mm
05:05 PM 41.5°F5.3°C 36.4°F2.4°C 82% 7.0 mph WSW11.3 kmh WSW 14.0 mph22.5 kmh 29.88 in1011.9 mb 0.02 in0.5 mm 0.12 in3.0 mm 0.12 in3.0 mm
05:00 PM 41.6°F5.3°C 36.5°F2.5°C 82% 12.0 mph W19.3 kmh W 15.0 mph24.1 kmh 29.88 in1011.9 mb 0.01 in0.3 mm 0.00 in0.0 mm 0.11 in2.8 mm
04:55 PM 41.6°F5.3°C 36.5°F2.5°C 82% 7.0 mph W11.3 kmh W 15.0 mph24.1 kmh 29.88 in1011.9 mb 0.01 in0.3 mm 0.00 in0.0 mm 0.11 in2.8 mm
04:50 PM 41.6°F5.3°C 36.5°F2.5°C 82% 8.0 mph WSW12.9 kmh WSW 18.0 mph29.0 kmh 29.88 in1011.9 mb 0.01 in0.3 mm 0.00 in0.0 mm 0.11 in2.8 mm
04:45 PM 41.7°F5.4°C 36.6°F2.6°C 82% 8.0 mph SW12.9 kmh SW 15.0 mph24.1 kmh 29.88 in1011.9 mb 0.02 in0.5 mm 0.00 in0.0 mm 0.11 in2.8 mm
04:40 PM 41.6°F5.3°C 36.5°F2.5°C 82% 11.0 mph W17.7 kmh W 16.0 mph25.7 kmh 29.88 in1011.9 mb 0.02 in0.5 mm 0.00 in0.0 mm 0.10 in2.5 mm
04:35 PM 41.6°F5.3°C 36.5°F2.5°C 82% 11.0 mph W17.7 kmh W 17.0 mph27.4 kmh 29.88 in1011.9 mb 0.02 in0.5 mm 0.00 in0.0 mm 0.10 in2.5 mm
04:30 PM 41.7°F5.4°C 36.6°F2.6°C 82% 11.0 mph W17.7 kmh W 14.0 mph22.5 kmh 29.88 in1011.9 mb 0.02 in0.5 mm 0.00 in0.0 mm 0.10 in2.5 mm
04:25 PM 41.7°F5.4°C 36.6°F2.6°C 82% 4.0 mph WSW6.4 kmh WSW 14.0 mph22.5 kmh 29.88 in1011.9 mb 0.02 in0.5 mm 0.00 in0.0 mm 0.10 in2.5 mm
04:20 PM 41.7°F5.4°C 36.6°F2.6°C 82% 12.0 mph WSW19.3 kmh WSW 15.0 mph24.1 kmh 29.88 in1011.9 mb 0.02 in0.5 mm 0.00 in0.0 mm 0.10 in2.5 mm
04:15 PM 41.8°F5.4°C 36.7°F2.6°C 82% 12.0 mph WNW19.3 kmh WNW 16.0 mph25.7 kmh 29.88 in1011.9 mb 0.02 in0.5 mm 0.00 in0.0 mm 0.10 in2.5 mm
04:10 PM 41.8°F5.4°C 36.7°F2.6°C 82% 13.0 mph W20.9 kmh W 15.0 mph24.1 kmh 29.88 in1011.9 mb 0.02 in0.5 mm 0.00 in0.0 mm 0.10 in2.5 mm
04:05 PM 41.9°F5.5°C 36.8°F2.7°C 82% 9.0 mph W14.5 kmh W 15.0 mph24.1 kmh 29.88 in1011.9 mb 0.03 in0.8 mm 0.00 in0.0 mm 0.10 in2.5 mm
04:00 PM 41.9°F5.5°C 36.8°F2.7°C 82% 7.0 mph WSW11.3 kmh WSW 14.0 mph22.5 kmh 29.88 in1011.9 mb 0.03 in0.8 mm 0.00 in0.0 mm 0.10 in2.5 mm
03:55 PM 42.0°F5.6°C 36.9°F2.7°C 82% 11.0 mph WSW17.7 kmh WSW 14.0 mph22.5 kmh 29.88 in1011.9 mb 0.03 in0.8 mm 0.00 in0.0 mm 0.10 in2.5 mm
03:50 PM 42.0°F5.6°C 36.9°F2.7°C 82% 10.0 mph WSW16.1 kmh WSW 15.0 mph24.1 kmh 29.88 in1011.9 mb 0.04 in1.0 mm 0.12 in3.0 mm 0.10 in2.5 mm
03:45 PM 42.1°F5.6°C 37.0°F2.8°C 82% 12.0 mph W19.3 kmh W 15.0 mph24.1 kmh 29.89 in1012.2 mb 0.03 in0.8 mm 0.12 in3.0 mm 0.09 in2.3 mm
03:40 PM 42.1°F5.6°C 37.0°F2.8°C 82% 8.0 mph WNW12.9 kmh WNW 15.0 mph24.1 kmh 29.89 in1012.2 mb 0.02 in0.5 mm 0.00 in0.0 mm 0.08 in2.0 mm
03:35 PM 42.2°F5.7°C 37.1°F2.8°C 82% 9.0 mph W14.5 kmh W 13.0 mph20.9 kmh 29.89 in1012.2 mb 0.02 in0.5 mm 0.00 in0.0 mm 0.08 in2.0 mm
03:30 PM 42.2°F5.7°C 37.1°F2.8°C 82% 9.0 mph SW14.5 kmh SW 15.0 mph24.1 kmh 29.89 in1012.2 mb 0.02 in0.5 mm 0.00 in0.0 mm 0.08 in2.0 mm
03:25 PM 42.3°F5.7°C 37.2°F2.9°C 82% 4.0 mph WNW6.4 kmh WNW 12.0 mph19.3 kmh 29.89 in1012.2 mb 0.02 in0.5 mm 0.00 in0.0 mm 0.08 in2.0 mm
03:20 PM 42.4°F5.8°C 37.3°F2.9°C 82% 7.0 mph W11.3 kmh W 15.0 mph24.1 kmh 29.89 in1012.2 mb 0.02 in0.5 mm 0.00 in0.0 mm 0.08 in2.0 mm
03:15 PM 42.4°F5.8°C 36.9°F2.7°C 81% 3.0 mph WNW4.8 kmh WNW 14.0 mph22.5 kmh 29.89 in1012.2 mb 0.02 in0.5 mm 0.00 in0.0 mm 0.08 in2.0 mm
03:10 PM 42.4°F5.8°C 36.9°F2.7°C 81% 6.0 mph W9.7 kmh W 15.0 mph24.1 kmh 29.89 in1012.2 mb 0.02 in0.5 mm 0.12 in3.0 mm 0.08 in2.0 mm
03:05 PM 42.5°F5.8°C 37.0°F2.8°C 81% 12.0 mph W19.3 kmh W 14.0 mph22.5 kmh 29.89 in1012.2 mb 0.01 in0.3 mm 0.00 in0.0 mm 0.07 in1.8 mm
03:00 PM 42.5°F5.8°C 37.3°F2.9°C 82% 11.0 mph SW17.7 kmh SW 16.0 mph25.7 kmh 29.89 in1012.2 mb 0.02 in0.5 mm 0.00 in0.0 mm 0.07 in1.8 mm
02:55 PM 42.6°F5.9°C 37.4°F3.0°C 82% 7.0 mph W11.3 kmh W 14.0 mph22.5 kmh 29.89 in1012.2 mb 0.02 in0.5 mm 0.12 in3.0 mm 0.07 in1.8 mm
02:50 PM 42.6°F5.9°C 37.1°F2.8°C 81% 11.0 mph SW17.7 kmh SW 13.0 mph20.9 kmh 29.88 in1011.9 mb 0.01 in0.3 mm 0.00 in0.0 mm 0.06 in1.5 mm
02:45 PM 42.6°F5.9°C 37.1°F2.8°C 81% 10.0 mph W16.1 kmh W 15.0 mph24.1 kmh 29.88 in1011.9 mb 0.01 in0.3 mm 0.00 in0.0 mm 0.06 in1.5 mm
02:40 PM 42.7°F5.9°C 37.2°F2.9°C 81% 16.0 mph SW25.7 kmh SW 16.0 mph25.7 kmh 29.88 in1011.9 mb 0.01 in0.3 mm 0.00 in0.0 mm 0.06 in1.5 mm
02:35 PM 42.7°F5.9°C 37.2°F2.9°C 81% 5.0 mph WSW8.0 kmh WSW 15.0 mph24.1 kmh 29.88 in1011.9 mb 0.01 in0.3 mm 0.00 in0.0 mm 0.06 in1.5 mm
02:30 PM 42.7°F5.9°C 37.2°F2.9°C 81% 6.0 mph WNW9.7 kmh WNW 18.0 mph29.0 kmh 29.88 in1011.9 mb 0.01 in0.3 mm 0.00 in0.0 mm 0.06 in1.5 mm
02:25 PM 42.8°F6.0°C 37.3°F2.9°C 81% 7.0 mph WSW11.3 kmh WSW 13.0 mph20.9 kmh 29.88 in1011.9 mb 0.01 in0.3 mm 0.00 in0.0 mm 0.06 in1.5 mm
02:20 PM 42.8°F6.0°C 37.3°F2.9°C 81% 4.0 mph WNW6.4 kmh WNW 15.0 mph24.1 kmh 29.88 in1011.9 mb 0.01 in0.3 mm 0.00 in0.0 mm 0.06 in1.5 mm
02:15 PM 42.9°F6.1°C 37.4°F3.0°C 81% 3.0 mph WNW4.8 kmh WNW 16.0 mph25.7 kmh 29.88 in1011.9 mb 0.01 in0.3 mm 0.00 in0.0 mm 0.06 in1.5 mm
02:10 PM 43.0°F6.1°C 37.5°F3.1°C 81% 13.0 mph W20.9 kmh W 14.0 mph22.5 kmh 29.88 in1011.9 mb 0.01 in0.3 mm 0.00 in0.0 mm 0.06 in1.5 mm
02:05 PM 43.2°F6.2°C 37.7°F3.2°C 81% 7.0 mph W11.3 kmh W 14.0 mph22.5 kmh 29.88 in1011.9 mb 0.01 in0.3 mm 0.12 in3.0 mm 0.06 in1.5 mm
02:00 PM 43.1°F6.2°C 37.6°F3.1°C 81% 7.0 mph WSW11.3 kmh WSW 15.0 mph24.1 kmh 29.88 in1011.9 mb 0.00 in0.0 mm 0.00 in0.0 mm 0.05 in1.3 mm
01:55 PM 43.2°F6.2°C 37.7°F3.2°C 81% 13.0 mph WSW20.9 kmh WSW 14.0 mph22.5 kmh 29.88 in1011.9 mb 0.00 in0.0 mm 0.00 in0.0 mm 0.05 in1.3 mm
01:50 PM 43.3°F6.3°C 37.8°F3.2°C 81% 7.0 mph W11.3 kmh W 15.0 mph24.1 kmh 29.88 in1011.9 mb 0.00 in0.0 mm 0.00 in0.0 mm 0.05 in1.3 mm
01:45 PM 43.4°F6.3°C 37.9°F3.3°C 81% 8.0 mph W12.9 kmh W 15.0 mph24.1 kmh 29.89 in1012.2 mb 0.00 in0.0 mm 0.00 in0.0 mm 0.05 in1.3 mm
01:40 PM 43.4°F6.3°C 37.9°F3.3°C 81% 7.0 mph W11.3 kmh W 14.0 mph22.5 kmh 29.89 in1012.2 mb 0.00 in0.0 mm 0.00 in0.0 mm 0.05 in1.3 mm
01:35 PM 43.4°F6.3°C 37.9°F3.3°C 81% 10.0 mph WSW16.1 kmh WSW 17.0 mph27.4 kmh 29.89 in1012.2 mb 0.00 in0.0 mm 0.00 in0.0 mm 0.05 in1.3 mm
01:30 PM 43.3°F6.3°C 37.8°F3.2°C 81% 6.0 mph W9.7 kmh W 14.0 mph22.5 kmh 29.89 in1012.2 mb 0.00 in0.0 mm 0.00 in0.0 mm 0.05 in1.3 mm
01:25 PM 43.3°F6.3°C 37.8°F3.2°C 81% 3.0 mph WSW4.8 kmh WSW 16.0 mph25.7 kmh 29.89 in1012.2 mb 0.00 in0.0 mm 0.00 in0.0 mm 0.05 in1.3 mm
01:20 PM 43.3°F6.3°C 37.8°F3.2°C 81% 5.0 mph WNW8.0 kmh WNW 14.0 mph22.5 kmh 29.89 in1012.2 mb 0.00 in0.0 mm 0.00 in0.0 mm 0.05 in1.3 mm
01:15 PM 43.2°F6.2°C 37.7°F3.2°C 81% 4.0 mph W6.4 kmh W 14.0 mph22.5 kmh 29.89 in1012.2 mb 0.00 in0.0 mm 0.00 in0.0 mm 0.05 in1.3 mm
01:10 PM 43.2°F6.2°C 37.7°F3.2°C 81% 7.0 mph WNW11.3 kmh WNW 14.0 mph22.5 kmh 29.90 in1012.5 mb 0.00 in0.0 mm 0.00 in0.0 mm 0.05 in1.3 mm
01:05 PM 43.3°F6.3°C 38.1°F3.4°C 82% 6.0 mph W9.7 kmh W 15.0 mph24.1 kmh 29.90 in1012.5 mb 0.00 in0.0 mm 0.00 in0.0 mm 0.05 in1.3 mm
01:00 PM 43.4°F6.3°C 38.2°F3.4°C 82% 3.0 mph WNW4.8 kmh WNW 15.0 mph24.1 kmh 29.90 in1012.5 mb 0.00 in0.0 mm 0.00 in0.0 mm 0.05 in1.3 mm
12:55 PM 43.4°F6.3°C 38.2°F3.4°C 82% 6.0 mph N9.7 kmh N 13.0 mph20.9 kmh 29.90 in1012.5 mb 0.00 in0.0 mm 0.00 in0.0 mm 0.05 in1.3 mm
12:50 PM 43.2°F6.2°C 37.7°F3.2°C 81% 7.0 mph W11.3 kmh W 17.0 mph27.4 kmh 29.90 in1012.5 mb 0.00 in0.0 mm 0.00 in0.0 mm 0.05 in1.3 mm
12:45 PM 43.4°F6.3°C 38.2°F3.4°C 82% 9.0 mph SW14.5 kmh SW 12.0 mph19.3 kmh 29.90 in1012.5 mb 0.00 in0.0 mm 0.00 in0.0 mm 0.05 in1.3 mm
12:40 PM 43.4°F6.3°C 38.2°F3.4°C 82% 6.0 mph W9.7 kmh W 13.0 mph20.9 kmh 29.90 in1012.5 mb 0.00 in0.0 mm 0.00 in0.0 mm 0.05 in1.3 mm
12:35 PM 43.6°F6.4°C 38.1°F3.4°C 81% 7.0 mph WNW11.3 kmh WNW 14.0 mph22.5 kmh 29.91 in1012.9 mb 0.00 in0.0 mm 0.00 in0.0 mm 0.05 in1.3 mm
12:30 PM 43.5°F6.4°C 38.0°F3.3°C 81% 7.0 mph SW11.3 kmh SW 13.0 mph20.9 kmh 29.91 in1012.9 mb 0.00 in0.0 mm 0.00 in0.0 mm 0.05 in1.3 mm
12:25 PM 43.4°F6.3°C 37.9°F3.3°C 81% 8.0 mph WSW12.9 kmh WSW 16.0 mph25.7 kmh 29.91 in1012.9 mb 0.00 in0.0 mm 0.00 in0.0 mm 0.05 in1.3 mm
12:20 PM 43.5°F6.4°C 38.0°F3.3°C 81% 13.0 mph W20.9 kmh W 14.0 mph22.5 kmh 29.91 in1012.9 mb 0.00 in0.0 mm 0.00 in0.0 mm 0.05 in1.3 mm
12:15 PM 43.5°F6.4°C 38.0°F3.3°C 81% 7.0 mph WNW11.3 kmh WNW 15.0 mph24.1 kmh 29.91 in1012.9 mb 0.00 in0.0 mm 0.00 in0.0 mm 0.05 in1.3 mm
12:10 PM 43.4°F6.3°C 37.9°F3.3°C 81% 12.0 mph SW19.3 kmh SW 16.0 mph25.7 kmh 29.92 in1013.2 mb 0.00 in0.0 mm 0.00 in0.0 mm 0.05 in1.3 mm
12:05 PM 43.3°F6.3°C 37.8°F3.2°C 81% 4.0 mph WNW6.4 kmh WNW 13.0 mph20.9 kmh 29.92 in1013.2 mb 0.00 in0.0 mm 0.00 in0.0 mm 0.05 in1.3 mm
12:00 PM 43.2°F6.2°C 37.7°F3.2°C 81% 8.0 mph WSW12.9 kmh WSW 16.0 mph25.7 kmh 29.92 in1013.2 mb 0.00 in0.0 mm 0.00 in0.0 mm 0.05 in1.3 mm
11:55 AM 43.3°F6.3°C 37.8°F3.2°C 81% 6.0 mph WSW9.7 kmh WSW 13.0 mph20.9 kmh 29.92 in1013.2 mb 0.00 in0.0 mm 0.00 in0.0 mm 0.05 in1.3 mm
11:50 AM 43.3°F6.3°C 37.8°F3.2°C 81% 13.0 mph WNW20.9 kmh WNW 15.0 mph24.1 kmh 29.92 in1013.2 mb 0.00 in0.0 mm 0.00 in0.0 mm 0.05 in1.3 mm
11:45 AM 43.3°F6.3°C 37.8°F3.2°C 81% 7.0 mph W11.3 kmh W 14.0 mph22.5 kmh 29.92 in1013.2 mb 0.00 in0.0 mm 0.00 in0.0 mm 0.05 in1.3 mm
11:40 AM 43.3°F6.3°C 37.8°F3.2°C 81% 11.0 mph WSW17.7 kmh WSW 15.0 mph24.1 kmh 29.92 in1013.2 mb 0.00 in0.0 mm 0.00 in0.0 mm 0.05 in1.3 mm
11:35 AM 43.2°F6.2°C 37.7°F3.2°C 81% 9.0 mph WSW14.5 kmh WSW 14.0 mph22.5 kmh 29.92 in1013.2 mb 0.00 in0.0 mm 0.00 in0.0 mm 0.05 in1.3 mm
11:30 AM 43.2°F6.2°C 37.7°F3.2°C 81% 9.0 mph NW14.5 kmh NW 13.0 mph20.9 kmh 29.93 in1013.5 mb 0.00 in0.0 mm 0.00 in0.0 mm 0.05 in1.3 mm
11:25 AM 43.1°F6.2°C 37.6°F3.1°C 81% 8.0 mph NW12.9 kmh NW 16.0 mph25.7 kmh 29.93 in1013.5 mb 0.00 in0.0 mm 0.00 in0.0 mm 0.05 in1.3 mm
11:20 AM 43.1°F6.2°C 37.6°F3.1°C 81% 10.0 mph NW16.1 kmh NW 16.0 mph25.7 kmh 29.93 in1013.5 mb 0.00 in0.0 mm 0.00 in0.0 mm 0.05 in1.3 mm
11:15 AM 43.1°F6.2°C 37.6°F3.1°C 81% 6.0 mph W9.7 kmh W 14.0 mph22.5 kmh 29.93 in1013.5 mb 0.00 in0.0 mm 0.00 in0.0 mm 0.05 in1.3 mm
11:10 AM 43.0°F6.1°C 37.5°F3.1°C 81% 12.0 mph WNW19.3 kmh WNW 17.0 mph27.4 kmh 29.93 in1013.5 mb 0.00 in0.0 mm 0.00 in0.0 mm 0.05 in1.3 mm
11:05 AM 43.0°F6.1°C 37.5°F3.1°C 81% 8.0 mph WSW12.9 kmh WSW 14.0 mph22.5 kmh 29.93 in1013.5 mb 0.00 in0.0 mm 0.00 in0.0 mm 0.05 in1.3 mm
11:00 AM 43.0°F6.1°C 37.5°F3.1°C 81% 12.0 mph W19.3 kmh W 16.0 mph25.7 kmh 29.93 in1013.5 mb 0.00 in0.0 mm 0.00 in0.0 mm 0.05 in1.3 mm
10:55 AM 43.0°F6.1°C 37.5°F3.1°C 81% 6.0 mph W9.7 kmh W 17.0 mph27.4 kmh 29.93 in1013.5 mb 0.00 in0.0 mm 0.00 in0.0 mm 0.05 in1.3 mm
10:50 AM 43.0°F6.1°C 37.5°F3.1°C 81% 12.0 mph WSW19.3 kmh WSW 15.0 mph24.1 kmh 29.93 in1013.5 mb 0.00 in0.0 mm 0.00 in0.0 mm 0.05 in1.3 mm
10:45 AM 43.0°F6.1°C 37.5°F3.1°C 81% 12.0 mph WSW19.3 kmh WSW 17.0 mph27.4 kmh 29.93 in1013.5 mb 0.00 in0.0 mm 0.00 in0.0 mm 0.05 in1.3 mm
10:40 AM 42.9°F6.1°C 37.4°F3.0°C 81% 5.0 mph WSW8.0 kmh WSW 16.0 mph25.7 kmh 29.93 in1013.5 mb 0.00 in0.0 mm 0.00 in0.0 mm 0.05 in1.3 mm
10:35 AM 42.9°F6.1°C 37.4°F3.0°C 81% 8.0 mph W12.9 kmh W 18.0 mph29.0 kmh 29.93 in1013.5 mb 0.00 in0.0 mm 0.00 in0.0 mm 0.05 in1.3 mm
10:30 AM 42.9°F6.1°C 37.4°F3.0°C 81% 11.0 mph W17.7 kmh W 14.0 mph22.5 kmh 29.93 in1013.5 mb 0.00 in0.0 mm 0.00 in0.0 mm 0.05 in1.3 mm
10:25 AM 43.0°F6.1°C 37.5°F3.1°C 81% 12.0 mph WSW19.3 kmh WSW 14.0 mph22.5 kmh 29.93 in1013.5 mb 0.00 in0.0 mm 0.00 in0.0 mm 0.05 in1.3 mm
10:20 AM 43.0°F6.1°C 37.5°F3.1°C 81% 12.0 mph W19.3 kmh W 15.0 mph24.1 kmh 29.93 in1013.5 mb 0.00 in0.0 mm 0.00 in0.0 mm 0.05 in1.3 mm
10:15 AM 43.0°F6.1°C 37.5°F3.1°C 81% 6.0 mph W9.7 kmh W 17.0 mph27.4 kmh 29.93 in1013.5 mb 0.00 in0.0 mm 0.00 in0.0 mm 0.05 in1.3 mm
10:10 AM 43.0°F6.1°C 37.5°F3.1°C 81% 9.0 mph WNW14.5 kmh WNW 16.0 mph25.7 kmh 29.93 in1013.5 mb 0.00 in0.0 mm 0.00 in0.0 mm 0.05 in1.3 mm
10:05 AM 43.0°F6.1°C 37.5°F3.1°C 81% 11.0 mph WSW17.7 kmh WSW 17.0 mph27.4 kmh 29.93 in1013.5 mb 0.00 in0.0 mm 0.00 in0.0 mm 0.05 in1.3 mm
10:00 AM 43.0°F6.1°C 37.5°F3.1°C 81% 7.0 mph WSW11.3 kmh WSW 14.0 mph22.5 kmh 29.93 in1013.5 mb 0.00 in0.0 mm 0.00 in0.0 mm 0.05 in1.3 mm
09:55 AM 43.0°F6.1°C 37.5°F3.1°C 81% 4.0 mph W6.4 kmh W 13.0 mph20.9 kmh 29.93 in1013.5 mb 0.00 in0.0 mm 0.00 in0.0 mm 0.05 in1.3 mm
09:50 AM 42.9°F6.1°C 37.4°F3.0°C 81% 11.0 mph WSW17.7 kmh WSW 17.0 mph27.4 kmh 29.92 in1013.2 mb 0.00 in0.0 mm 0.00 in0.0 mm 0.05 in1.3 mm
09:45 AM 42.9°F6.1°C 37.4°F3.0°C 81% 11.0 mph W17.7 kmh W 14.0 mph22.5 kmh 29.93 in1013.5 mb 0.00 in0.0 mm 0.00 in0.0 mm 0.05 in1.3 mm
09:40 AM 42.9°F6.1°C 37.4°F3.0°C 81% 7.0 mph WNW11.3 kmh WNW 14.0 mph22.5 kmh 29.92 in1013.2 mb 0.00 in0.0 mm 0.00 in0.0 mm 0.05 in1.3 mm
09:35 AM 42.9°F6.1°C 37.4°F3.0°C 81% 10.0 mph WSW16.1 kmh WSW 14.0 mph22.5 kmh 29.92 in1013.2 mb 0.00 in0.0 mm 0.00 in0.0 mm 0.05 in1.3 mm
09:30 AM 42.8°F6.0°C 37.6°F3.1°C 82% 4.0 mph WNW6.4 kmh WNW 18.0 mph29.0 kmh 29.92 in1013.2 mb 0.00 in0.0 mm 0.00 in0.0 mm 0.05 in1.3 mm
09:25 AM 42.8°F6.0°C 37.6°F3.1°C 82% 6.0 mph W9.7 kmh W 14.0 mph22.5 kmh 29.92 in1013.2 mb 0.00 in0.0 mm 0.00 in0.0 mm 0.05 in1.3 mm
09:20 AM 42.7°F5.9°C 37.5°F3.1°C 82% 3.0 mph WSW4.8 kmh WSW 12.0 mph19.3 kmh 29.92 in1013.2 mb 0.00 in0.0 mm 0.00 in0.0 mm 0.05 in1.3 mm
09:15 AM 42.7°F5.9°C 37.2°F2.9°C 81% 9.0 mph WSW14.5 kmh WSW 16.0 mph25.7 kmh 29.92 in1013.2 mb 0.00 in0.0 mm 0.00 in0.0 mm 0.05 in1.3 mm
09:10 AM 42.6°F5.9°C 37.4°F3.0°C 82% 15.0 mph SW24.1 kmh SW 15.0 mph24.1 kmh 29.92 in1013.2 mb 0.00 in0.0 mm 0.00 in0.0 mm 0.05 in1.3 mm
09:05 AM 42.7°F5.9°C 37.5°F3.1°C 82% 12.0 mph WSW19.3 kmh WSW 15.0 mph24.1 kmh 29.92 in1013.2 mb 0.00 in0.0 mm 0.00 in0.0 mm 0.05 in1.3 mm
09:00 AM 42.6°F5.9°C 37.4°F3.0°C 82% 11.0 mph WSW17.7 kmh WSW 12.0 mph19.3 kmh 29.92 in1013.2 mb 0.00 in0.0 mm 0.00 in0.0 mm 0.05 in1.3 mm
08:55 AM 42.6°F5.9°C 37.4°F3.0°C 82% 11.0 mph SW17.7 kmh SW 12.0 mph19.3 kmh 29.92 in1013.2 mb 0.00 in0.0 mm 0.00 in0.0 mm 0.05 in1.3 mm
08:50 AM 42.6°F5.9°C 37.4°F3.0°C 82% 5.0 mph WSW8.0 kmh WSW 14.0 mph22.5 kmh 29.91 in1012.9 mb 0.00 in0.0 mm 0.00 in0.0 mm 0.05 in1.3 mm
08:45 AM 42.5°F5.8°C 37.3°F2.9°C 82% 10.0 mph WSW16.1 kmh WSW 13.0 mph20.9 kmh 29.91 in1012.9 mb 0.00 in0.0 mm 0.00 in0.0 mm 0.05 in1.3 mm
08:40 AM 42.5°F5.8°C 37.3°F2.9°C 82% 7.0 mph W11.3 kmh W 14.0 mph22.5 kmh 29.91 in1012.9 mb 0.00 in0.0 mm 0.00 in0.0 mm 0.05 in1.3 mm
08:35 AM 42.4°F5.8°C 37.3°F2.9°C 82% 5.0 mph WSW8.0 kmh WSW 17.0 mph27.4 kmh 29.91 in1012.9 mb 0.00 in0.0 mm 0.00 in0.0 mm 0.05 in1.3 mm
08:30 AM 42.3°F5.7°C 37.2°F2.9°C 82% 5.0 mph WSW8.0 kmh WSW 16.0 mph25.7 kmh 29.91 in1012.9 mb 0.00 in0.0 mm 0.00 in0.0 mm 0.05 in1.3 mm
08:25 AM 42.3°F5.7°C 37.2°F2.9°C 82% 6.0 mph SW9.7 kmh SW 17.0 mph27.4 kmh 29.91 in1012.9 mb 0.00 in0.0 mm 0.00 in0.0 mm 0.05 in1.3 mm
08:20 AM 42.2°F5.7°C 37.1°F2.8°C 82% 4.0 mph W6.4 kmh W 13.0 mph20.9 kmh 29.91 in1012.9 mb 0.00 in0.0 mm 0.00 in0.0 mm 0.05 in1.3 mm
08:15 AM 42.1°F5.6°C 37.0°F2.8°C 82% 7.0 mph W11.3 kmh W 14.0 mph22.5 kmh 29.92 in1013.2 mb 0.00 in0.0 mm 0.00 in0.0 mm 0.05 in1.3 mm
08:10 AM 42.1°F5.6°C 37.0°F2.8°C 82% 8.0 mph WSW12.9 kmh WSW 17.0 mph27.4 kmh 29.91 in1012.9 mb 0.00 in0.0 mm 0.00 in0.0 mm 0.05 in1.3 mm
08:05 AM 42.1°F5.6°C 37.0°F2.8°C 82% 4.0 mph W6.4 kmh W 14.0 mph22.5 kmh 29.91 in1012.9 mb 0.00 in0.0 mm 0.00 in0.0 mm 0.05 in1.3 mm
08:00 AM 42.1°F5.6°C 37.0°F2.8°C 82% 8.0 mph WSW12.9 kmh WSW 18.0 mph29.0 kmh 29.91 in1012.9 mb 0.00 in0.0 mm 0.00 in0.0 mm 0.05 in1.3 mm
07:55 AM 42.1°F5.6°C 37.0°F2.8°C 82% 11.0 mph WSW17.7 kmh WSW 16.0 mph25.7 kmh 29.91 in1012.9 mb 0.00 in0.0 mm 0.00 in0.0 mm 0.05 in1.3 mm
07:50 AM 42.0°F5.6°C 36.9°F2.7°C 82% 13.0 mph W20.9 kmh W 17.0 mph27.4 kmh 29.91 in1012.9 mb 0.00 in0.0 mm 0.00 in0.0 mm 0.05 in1.3 mm
07:45 AM 42.0°F5.6°C 36.9°F2.7°C 82% 11.0 mph WSW17.7 kmh WSW 20.0 mph32.2 kmh 29.91 in1012.9 mb 0.00 in0.0 mm 0.00 in0.0 mm 0.05 in1.3 mm
07:40 AM 41.9°F5.5°C 36.8°F2.7°C 82% 11.0 mph WSW17.7 kmh WSW 16.0 mph25.7 kmh 29.91 in1012.9 mb 0.00 in0.0 mm 0.00 in0.0 mm 0.05 in1.3 mm
07:35 AM 41.9°F5.5°C 36.8°F2.7°C 82% 14.0 mph SW22.5 kmh SW 17.0 mph27.4 kmh 29.91 in1012.9 mb 0.00 in0.0 mm 0.00 in0.0 mm 0.05 in1.3 mm
07:30 AM 41.8°F5.4°C 36.7°F2.6°C 82% 6.0 mph SW9.7 kmh SW 12.0 mph19.3 kmh 29.91 in1012.9 mb 0.00 in0.0 mm 0.00 in0.0 mm 0.05 in1.3 mm
07:25 AM 41.7°F5.4°C 36.9°F2.7°C 83% 8.0 mph WSW12.9 kmh WSW 15.0 mph24.1 kmh 29.91 in1012.9 mb 0.00 in0.0 mm 0.00 in0.0 mm 0.05 in1.3 mm
07:20 AM 41.7°F5.4°C 36.9°F2.7°C 83% 8.0 mph WNW12.9 kmh WNW 12.0 mph19.3 kmh 29.91 in1012.9 mb 0.00 in0.0 mm 0.00 in0.0 mm 0.05 in1.3 mm
07:15 AM 41.6°F5.3°C 36.8°F2.7°C 83% 8.0 mph W12.9 kmh W 15.0 mph24.1 kmh 29.91 in1012.9 mb 0.00 in0.0 mm 0.00 in0.0 mm 0.05 in1.3 mm
07:10 AM 41.7°F5.4°C 36.9°F2.7°C 83% 5.0 mph WNW8.0 kmh WNW 12.0 mph19.3 kmh 29.91 in1012.9 mb 0.00 in0.0 mm 0.00 in0.0 mm 0.05 in1.3 mm
07:05 AM 41.7°F5.4°C 36.9°F2.7°C 83% 2.0 mph WSW3.2 kmh WSW 12.0 mph19.3 kmh 29.91 in1012.9 mb 0.00 in0.0 mm 0.00 in0.0 mm 0.05 in1.3 mm
07:00 AM 41.6°F5.3°C 36.8°F2.7°C 83% 6.0 mph WSW9.7 kmh WSW 14.0 mph22.5 kmh 29.91 in1012.9 mb 0.00 in0.0 mm 0.00 in0.0 mm 0.05 in1.3 mm
06:55 AM 41.6°F5.3°C 36.8°F2.7°C 83% 7.0 mph WSW11.3 kmh WSW 13.0 mph20.9 kmh 29.91 in1012.9 mb 0.00 in0.0 mm 0.00 in0.0 mm 0.05 in1.3 mm
06:50 AM 41.5°F5.3°C 36.7°F2.6°C 83% 11.0 mph SW17.7 kmh SW 15.0 mph24.1 kmh 29.91 in1012.9 mb 0.00 in0.0 mm 0.00 in0.0 mm 0.05 in1.3 mm
06:45 AM 41.5°F5.3°C 36.7°F2.6°C 83% 8.0 mph W12.9 kmh W 13.0 mph20.9 kmh 29.91 in1012.9 mb 0.00 in0.0 mm 0.00 in0.0 mm 0.05 in1.3 mm
06:40 AM 41.5°F5.3°C 36.4°F2.4°C 82% 4.0 mph W6.4 kmh W 13.0 mph20.9 kmh 29.91 in1012.9 mb 0.00 in0.0 mm 0.00 in0.0 mm 0.05 in1.3 mm
06:35 AM 41.5°F5.3°C 36.4°F2.4°C 82% 6.0 mph SW9.7 kmh SW 11.0 mph17.7 kmh 29.91 in1012.9 mb 0.01 in0.3 mm 0.00 in0.0 mm 0.05 in1.3 mm
06:30 AM 41.4°F5.2°C 36.3°F2.4°C 82% 4.0 mph WSW6.4 kmh WSW 16.0 mph25.7 kmh 29.91 in1012.9 mb 0.01 in0.3 mm 0.00 in0.0 mm 0.05 in1.3 mm
06:25 AM 41.5°F5.3°C 36.4°F2.4°C 82% 6.0 mph WSW9.7 kmh WSW 12.0 mph19.3 kmh 29.91 in1012.9 mb 0.01 in0.3 mm 0.00 in0.0 mm 0.05 in1.3 mm
06:20 AM 41.4°F5.2°C 36.3°F2.4°C 82% 7.0 mph WNW11.3 kmh WNW 15.0 mph24.1 kmh 29.91 in1012.9 mb 0.01 in0.3 mm 0.00 in0.0 mm 0.05 in1.3 mm
06:15 AM 41.4°F5.2°C 36.3°F2.4°C 82% 9.0 mph W14.5 kmh W 17.0 mph27.4 kmh 29.91 in1012.9 mb 0.01 in0.3 mm 0.00 in0.0 mm 0.05 in1.3 mm
06:10 AM 41.4°F5.2°C 36.3°F2.4°C 82% 8.0 mph W12.9 kmh W 14.0 mph22.5 kmh 29.91 in1012.9 mb 0.01 in0.3 mm 0.00 in0.0 mm 0.05 in1.3 mm
06:05 AM 41.4°F5.2°C 36.3°F2.4°C 82% 7.0 mph W11.3 kmh W 14.0 mph22.5 kmh 29.90 in1012.5 mb 0.01 in0.3 mm 0.00 in0.0 mm 0.05 in1.3 mm
06:00 AM 41.4°F5.2°C 36.3°F2.4°C 82% 4.0 mph WSW6.4 kmh WSW 13.0 mph20.9 kmh 29.90 in1012.5 mb 0.01 in0.3 mm 0.00 in0.0 mm 0.05 in1.3 mm
05:55 AM 41.4°F5.2°C 36.3°F2.4°C 82% 9.0 mph WNW14.5 kmh WNW 15.0 mph24.1 kmh 29.90 in1012.5 mb 0.01 in0.3 mm 0.00 in0.0 mm 0.05 in1.3 mm
05:50 AM 41.4°F5.2°C 36.3°F2.4°C 82% 4.0 mph W6.4 kmh W 14.0 mph22.5 kmh 29.90 in1012.5 mb 0.01 in0.3 mm 0.00 in0.0 mm 0.05 in1.3 mm
05:45 AM 41.4°F5.2°C 36.3°F2.4°C 82% 8.0 mph WNW12.9 kmh WNW 13.0 mph20.9 kmh 29.91 in1012.9 mb 0.01 in0.3 mm 0.00 in0.0 mm 0.05 in1.3 mm
05:40 AM 41.5°F5.3°C 36.4°F2.4°C 82% 8.0 mph WSW12.9 kmh WSW 15.0 mph24.1 kmh 29.90 in1012.5 mb 0.01 in0.3 mm 0.12 in3.0 mm 0.05 in1.3 mm
05:35 AM 41.5°F5.3°C 36.4°F2.4°C 82% 7.0 mph WSW11.3 kmh WSW 14.0 mph22.5 kmh 29.91 in1012.9 mb 0.00 in0.0 mm 0.00 in0.0 mm 0.04 in1.0 mm
05:30 AM 41.6°F5.3°C 36.5°F2.5°C 82% 7.0 mph SW11.3 kmh SW 12.0 mph19.3 kmh 29.91 in1012.9 mb 0.00 in0.0 mm 0.00 in0.0 mm 0.04 in1.0 mm
05:25 AM 41.5°F5.3°C 36.4°F2.4°C 82% 7.0 mph WSW11.3 kmh WSW 13.0 mph20.9 kmh 29.91 in1012.9 mb 0.00 in0.0 mm 0.00 in0.0 mm 0.04 in1.0 mm
05:20 AM 41.5°F5.3°C 36.4°F2.4°C 82% 8.0 mph W12.9 kmh W 13.0 mph20.9 kmh 29.91 in1012.9 mb 0.00 in0.0 mm 0.00 in0.0 mm 0.04 in1.0 mm
05:15 AM 41.5°F5.3°C 36.4°F2.4°C 82% 10.0 mph W16.1 kmh W 11.0 mph17.7 kmh 29.91 in1012.9 mb 0.00 in0.0 mm 0.00 in0.0 mm 0.04 in1.0 mm
05:10 AM 41.5°F5.3°C 36.4°F2.4°C 82% 7.0 mph WSW11.3 kmh WSW 13.0 mph20.9 kmh 29.91 in1012.9 mb 0.00 in0.0 mm 0.00 in0.0 mm 0.04 in1.0 mm
05:05 AM 41.4°F5.2°C 36.3°F2.4°C 82% 11.0 mph WSW17.7 kmh WSW 12.0 mph19.3 kmh 29.91 in1012.9 mb 0.00 in0.0 mm 0.00 in0.0 mm 0.04 in1.0 mm
05:00 AM 41.4°F5.2°C 36.3°F2.4°C 82% 8.0 mph SW12.9 kmh SW 15.0 mph24.1 kmh 29.91 in1012.9 mb 0.00 in0.0 mm 0.00 in0.0 mm 0.04 in1.0 mm
04:55 AM 41.4°F5.2°C 36.3°F2.4°C 82% 4.0 mph W6.4 kmh W 15.0 mph24.1 kmh 29.91 in1012.9 mb 0.00 in0.0 mm 0.00 in0.0 mm 0.04 in1.0 mm
04:50 AM 41.5°F5.3°C 36.4°F2.4°C 82% 6.0 mph W9.7 kmh W 10.0 mph16.1 kmh 29.91 in1012.9 mb 0.00 in0.0 mm 0.00 in0.0 mm 0.04 in1.0 mm
04:45 AM 41.5°F5.3°C 36.7°F2.6°C 83% 8.0 mph SW12.9 kmh SW 10.0 mph16.1 kmh 29.91 in1012.9 mb 0.00 in0.0 mm 0.00 in0.0 mm 0.04 in1.0 mm
04:40 AM 41.5°F5.3°C 36.7°F2.6°C 83% 6.0 mph W9.7 kmh W 13.0 mph20.9 kmh 29.91 in1012.9 mb 0.00 in0.0 mm 0.00 in0.0 mm 0.04 in1.0 mm
04:35 AM 41.6°F5.3°C 36.8°F2.7°C 83% 4.0 mph NW6.4 kmh NW 10.0 mph16.1 kmh 29.91 in1012.9 mb 0.00 in0.0 mm 0.00 in0.0 mm 0.04 in1.0 mm
04:30 AM 41.7°F5.4°C 36.9°F2.7°C 83% 3.0 mph WSW4.8 kmh WSW 10.0 mph16.1 kmh 29.91 in1012.9 mb 0.00 in0.0 mm 0.00 in0.0 mm 0.04 in1.0 mm
04:25 AM 41.7°F5.4°C 36.9°F2.7°C 83% 7.0 mph W11.3 kmh W 10.0 mph16.1 kmh 29.91 in1012.9 mb 0.00 in0.0 mm 0.00 in0.0 mm 0.04 in1.0 mm
04:20 AM 41.7°F5.4°C 36.9°F2.7°C 83% 6.0 mph WSW9.7 kmh WSW 12.0 mph19.3 kmh 29.91 in1012.9 mb 0.01 in0.3 mm 0.00 in0.0 mm 0.04 in1.0 mm
04:15 AM 41.9°F5.5°C 37.1°F2.8°C 83% 4.0 mph WSW6.4 kmh WSW 14.0 mph22.5 kmh 29.91 in1012.9 mb 0.01 in0.3 mm 0.00 in0.0 mm 0.04 in1.0 mm
04:10 AM 41.9°F5.5°C 36.8°F2.7°C 82% 4.0 mph WSW6.4 kmh WSW 10.0 mph16.1 kmh 29.91 in1012.9 mb 0.01 in0.3 mm 0.00 in0.0 mm 0.04 in1.0 mm
04:05 AM 42.0°F5.6°C 36.9°F2.7°C 82% 3.0 mph W4.8 kmh W 12.0 mph19.3 kmh 29.91 in1012.9 mb 0.01 in0.3 mm 0.00 in0.0 mm 0.04 in1.0 mm
04:00 AM 42.0°F5.6°C 36.9°F2.7°C 82% 5.0 mph WSW8.0 kmh WSW 11.0 mph17.7 kmh 29.91 in1012.9 mb 0.01 in0.3 mm 0.00 in0.0 mm 0.04 in1.0 mm
03:55 AM 42.1°F5.6°C 37.0°F2.8°C 82% 4.0 mph WSW6.4 kmh WSW 12.0 mph19.3 kmh 29.91 in1012.9 mb 0.01 in0.3 mm 0.00 in0.0 mm 0.04 in1.0 mm
03:50 AM 42.1°F5.6°C 37.0°F2.8°C 82% 4.0 mph WSW6.4 kmh WSW 13.0 mph20.9 kmh 29.91 in1012.9 mb 0.01 in0.3 mm 0.00 in0.0 mm 0.04 in1.0 mm
03:45 AM 42.2°F5.7°C 37.1°F2.8°C 82% 3.0 mph WSW4.8 kmh WSW 9.0 mph14.5 kmh 29.91 in1012.9 mb 0.01 in0.3 mm 0.00 in0.0 mm 0.04 in1.0 mm
03:40 AM 42.3°F5.7°C 37.2°F2.9°C 82% 3.0 mph WNW4.8 kmh WNW 11.0 mph17.7 kmh 29.91 in1012.9 mb 0.02 in0.5 mm 0.00 in0.0 mm 0.04 in1.0 mm
03:35 AM 42.4°F5.8°C 37.6°F3.1°C 83% 5.0 mph SW8.0 kmh SW 13.0 mph20.9 kmh 29.91 in1012.9 mb 0.02 in0.5 mm 0.00 in0.0 mm 0.04 in1.0 mm
03:30 AM 42.4°F5.8°C 37.6°F3.1°C 83% 5.0 mph WSW8.0 kmh WSW 11.0 mph17.7 kmh 29.92 in1013.2 mb 0.02 in0.5 mm 0.00 in0.0 mm 0.04 in1.0 mm
03:25 AM 42.4°F5.8°C 37.6°F3.1°C 83% 5.0 mph WSW8.0 kmh WSW 14.0 mph22.5 kmh 29.91 in1012.9 mb 0.02 in0.5 mm 0.12 in3.0 mm 0.04 in1.0 mm
03:20 AM 42.5°F5.8°C 37.7°F3.2°C 83% 9.0 mph WSW14.5 kmh WSW 11.0 mph17.7 kmh 29.92 in1013.2 mb 0.01 in0.3 mm 0.00 in0.0 mm 0.03 in0.8 mm
03:15 AM 42.6°F5.9°C 37.8°F3.2°C 83% 5.0 mph WSW8.0 kmh WSW 9.0 mph14.5 kmh 29.92 in1013.2 mb 0.01 in0.3 mm 0.00 in0.0 mm 0.03 in0.8 mm
03:10 AM 42.7°F5.9°C 37.5°F3.1°C 82% 3.0 mph WSW4.8 kmh WSW 7.0 mph11.3 kmh 29.92 in1013.2 mb 0.01 in0.3 mm 0.00 in0.0 mm 0.03 in0.8 mm
03:05 AM 42.8°F6.0°C 37.6°F3.1°C 82% 6.0 mph WSW9.7 kmh WSW 11.0 mph17.7 kmh 29.92 in1013.2 mb 0.01 in0.3 mm 0.00 in0.0 mm 0.03 in0.8 mm
03:00 AM 42.8°F6.0°C 37.6°F3.1°C 82% 4.0 mph W6.4 kmh W 8.0 mph12.9 kmh 29.92 in1013.2 mb 0.01 in0.3 mm 0.00 in0.0 mm 0.03 in0.8 mm
02:55 AM 42.9°F6.1°C 37.7°F3.2°C 82% 5.0 mph WSW8.0 kmh WSW 9.0 mph14.5 kmh 29.92 in1013.2 mb 0.01 in0.3 mm 0.00 in0.0 mm 0.03 in0.8 mm
02:50 AM 43.0°F6.1°C 37.8°F3.2°C 82% 4.0 mph W6.4 kmh W 8.0 mph12.9 kmh 29.92 in1013.2 mb 0.01 in0.3 mm 0.00 in0.0 mm 0.03 in0.8 mm
02:45 AM 43.0°F6.1°C 38.1°F3.4°C 83% 3.0 mph W4.8 kmh W 9.0 mph14.5 kmh 29.93 in1013.5 mb 0.01 in0.3 mm 0.12 in3.0 mm 0.03 in0.8 mm
02:40 AM 43.1°F6.2°C 38.2°F3.4°C 83% 3.0 mph W4.8 kmh W 11.0 mph17.7 kmh 29.92 in1013.2 mb 0.00 in0.0 mm 0.00 in0.0 mm 0.02 in0.5 mm
02:35 AM 43.1°F6.2°C 38.2°F3.4°C 83% 3.0 mph WSW4.8 kmh WSW 9.0 mph14.5 kmh 29.92 in1013.2 mb 0.00 in0.0 mm 0.00 in0.0 mm 0.02 in0.5 mm
02:30 AM 43.2°F6.2°C 38.3°F3.5°C 83% 5.0 mph WSW8.0 kmh WSW 10.0 mph16.1 kmh 29.92 in1013.2 mb 0.00 in0.0 mm 0.00 in0.0 mm 0.02 in0.5 mm
02:25 AM 43.2°F6.2°C 38.3°F3.5°C 83% 4.0 mph W6.4 kmh W 10.0 mph16.1 kmh 29.92 in1013.2 mb 0.00 in0.0 mm 0.00 in0.0 mm 0.02 in0.5 mm
02:20 AM 43.2°F6.2°C 38.3°F3.5°C 83% 3.0 mph W4.8 kmh W 10.0 mph16.1 kmh 29.92 in1013.2 mb 0.00 in0.0 mm 0.00 in0.0 mm 0.02 in0.5 mm
02:15 AM 43.2°F6.2°C 38.3°F3.5°C 83% 5.0 mph WNW8.0 kmh WNW 13.0 mph20.9 kmh 29.92 in1013.2 mb 0.00 in0.0 mm 0.00 in0.0 mm 0.02 in0.5 mm
02:10 AM 43.2°F6.2°C 38.3°F3.5°C 83% 4.0 mph SW6.4 kmh SW 12.0 mph19.3 kmh 29.92 in1013.2 mb 0.00 in0.0 mm 0.00 in0.0 mm 0.02 in0.5 mm
02:05 AM 43.2°F6.2°C 38.3°F3.5°C 83% 4.0 mph W6.4 kmh W 11.0 mph17.7 kmh 29.92 in1013.2 mb 0.00 in0.0 mm 0.00 in0.0 mm 0.02 in0.5 mm
02:00 AM 43.2°F6.2°C 38.3°F3.5°C 83% 4.0 mph WSW6.4 kmh WSW 11.0 mph17.7 kmh 29.92 in1013.2 mb 0.00 in0.0 mm 0.00 in0.0 mm 0.02 in0.5 mm
01:55 AM 43.2°F6.2°C 38.3°F3.5°C 83% 4.0 mph W6.4 kmh W 9.0 mph14.5 kmh 29.92 in1013.2 mb 0.00 in0.0 mm 0.00 in0.0 mm 0.02 in0.5 mm
01:50 AM 43.2°F6.2°C 38.3°F3.5°C 83% 6.0 mph WSW9.7 kmh WSW 9.0 mph14.5 kmh 29.92 in1013.2 mb 0.00 in0.0 mm 0.00 in0.0 mm 0.02 in0.5 mm
01:45 AM 43.2°F6.2°C 38.3°F3.5°C 83% 4.0 mph WSW6.4 kmh WSW 9.0 mph14.5 kmh 29.92 in1013.2 mb 0.00 in0.0 mm 0.00 in0.0 mm 0.02 in0.5 mm
01:40 AM 43.3°F6.3°C 38.4°F3.6°C 83% 3.0 mph WNW4.8 kmh WNW 8.0 mph12.9 kmh 29.92 in1013.2 mb 0.00 in0.0 mm 0.00 in0.0 mm 0.02 in0.5 mm
01:35 AM 43.3°F6.3°C 38.4°F3.6°C 83% 2.0 mph WNW3.2 kmh WNW 9.0 mph14.5 kmh 29.92 in1013.2 mb 0.00 in0.0 mm 0.00 in0.0 mm 0.02 in0.5 mm
01:30 AM 43.4°F6.3°C 38.5°F3.6°C 83% 4.0 mph W6.4 kmh W 10.0 mph16.1 kmh 29.92 in1013.2 mb 0.00 in0.0 mm 0.00 in0.0 mm 0.02 in0.5 mm
01:25 AM 43.4°F6.3°C 38.5°F3.6°C 83% 4.0 mph W6.4 kmh W 8.0 mph12.9 kmh 29.92 in1013.2 mb 0.00 in0.0 mm 0.00 in0.0 mm 0.02 in0.5 mm
01:20 AM 43.4°F6.3°C 38.5°F3.6°C 83% 3.0 mph WSW4.8 kmh WSW 11.0 mph17.7 kmh 29.92 in1013.2 mb 0.00 in0.0 mm 0.00 in0.0 mm 0.02 in0.5 mm
01:15 AM 43.5°F6.4°C 38.6°F3.7°C 83% 3.0 mph NW4.8 kmh NW 8.0 mph12.9 kmh 29.92 in1013.2 mb 0.01 in0.3 mm 0.00 in0.0 mm 0.02 in0.5 mm
01:10 AM 43.5°F6.4°C 38.6°F3.7°C 83% 5.0 mph WSW8.0 kmh WSW 7.0 mph11.3 kmh 29.92 in1013.2 mb 0.01 in0.3 mm 0.00 in0.0 mm 0.02 in0.5 mm
01:05 AM 43.5°F6.4°C 38.6°F3.7°C 83% 3.0 mph WSW4.8 kmh WSW 8.0 mph12.9 kmh 29.92 in1013.2 mb 0.01 in0.3 mm 0.00 in0.0 mm 0.02 in0.5 mm
01:00 AM 43.6°F6.4°C 38.7°F3.7°C 83% 4.0 mph WNW6.4 kmh WNW 8.0 mph12.9 kmh 29.92 in1013.2 mb 0.02 in0.5 mm 0.00 in0.0 mm 0.02 in0.5 mm
12:55 AM 43.6°F6.4°C 38.7°F3.7°C 83% 2.0 mph W3.2 kmh W 9.0 mph14.5 kmh 29.92 in1013.2 mb 0.02 in0.5 mm 0.00 in0.0 mm 0.02 in0.5 mm
12:50 AM 43.6°F6.4°C 38.7°F3.7°C 83% 5.0 mph WSW8.0 kmh WSW 9.0 mph14.5 kmh 29.92 in1013.2 mb 0.02 in0.5 mm 0.00 in0.0 mm 0.02 in0.5 mm
12:45 AM 43.6°F6.4°C 38.7°F3.7°C 83% 3.0 mph W4.8 kmh W 8.0 mph12.9 kmh 29.92 in1013.2 mb 0.03 in0.8 mm 0.00 in0.0 mm 0.02 in0.5 mm
12:40 AM 43.6°F6.4°C 38.7°F3.7°C 83% 5.0 mph WSW8.0 kmh WSW 7.0 mph11.3 kmh 29.93 in1013.5 mb 0.03 in0.8 mm 0.00 in0.0 mm 0.02 in0.5 mm
12:35 AM 43.6°F6.4°C 38.7°F3.7°C 83% 5.0 mph WSW8.0 kmh WSW 8.0 mph12.9 kmh 29.93 in1013.5 mb 0.03 in0.8 mm 0.00 in0.0 mm 0.02 in0.5 mm
12:30 AM 43.5°F6.4°C 38.6°F3.7°C 83% 2.0 mph W3.2 kmh W 6.0 mph9.7 kmh 29.93 in1013.5 mb 0.03 in0.8 mm 0.00 in0.0 mm 0.02 in0.5 mm
12:25 AM 43.5°F6.4°C 38.6°F3.7°C 83% 1.0 mph NW1.6 kmh NW 5.0 mph8.0 kmh 29.93 in1013.5 mb 0.04 in1.0 mm 0.00 in0.0 mm 0.02 in0.5 mm
12:20 AM 43.6°F6.4°C 38.7°F3.7°C 83% 3.0 mph WSW4.8 kmh WSW 6.0 mph9.7 kmh 29.93 in1013.5 mb 0.04 in1.0 mm 0.12 in3.0 mm 0.02 in0.5 mm
12:15 AM 43.6°F6.4°C 38.7°F3.7°C 83% 3.0 mph W4.8 kmh W 9.0 mph14.5 kmh 29.93 in1013.5 mb 0.03 in0.8 mm 0.00 in0.0 mm 0.01 in0.3 mm
12:10 AM 43.6°F6.4°C 38.7°F3.7°C 83% 4.0 mph WNW6.4 kmh WNW 10.0 mph16.1 kmh 29.93 in1013.5 mb 0.03 in0.8 mm 0.00 in0.0 mm 0.01 in0.3 mm
12:05 AM 43.6°F6.4°C 38.4°F3.6°C 82% 3.0 mph WNW4.8 kmh WNW 7.0 mph11.3 kmh 29.93 in1013.5 mb 0.03 in0.8 mm 0.12 in3.0 mm 0.01 in0.3 mm
12:00 AM 43.6°F6.4°C 38.4°F3.6°C 82% 4.0 mph WNW6.4 kmh WNW 6.0 mph9.7 kmh 29.93 in1013.5 mb 0.02 in0.5 mm 0.00 in0.0 mm 0.10 in2.5 mm